createdAt,value
2022-08-10T00:04:07.066Z,100.00
2022-08-10T00:09:08.697Z,100.00
2022-08-10T00:14:10.367Z,100.00
2022-08-10T00:19:12.014Z,100.00
2022-08-10T00:24:14.615Z,100.00
2022-08-10T00:29:16.241Z,100.00
2022-08-10T00:34:17.861Z,100.00
2022-08-10T00:39:19.539Z,100.00
2022-08-10T00:44:21.318Z,100.00
2022-08-10T00:49:23.024Z,100.00
2022-08-10T00:54:25.247Z,100.00
2022-08-10T00:59:26.921Z,100.00
2022-08-10T01:04:39.932Z,100.00
2022-08-10T01:09:56.896Z,100.00
2022-08-10T01:15:29.337Z,100.00
2022-08-10T01:20:37.908Z,100.00
2022-08-10T01:26:10.518Z,100.00
2022-08-10T01:31:20.039Z,100.00
2022-08-10T01:36:32.454Z,100.00
2022-08-10T01:41:46.918Z,100.00
2022-08-10T01:46:53.174Z,100.00
2022-08-10T01:52:00.933Z,100.00
2022-08-10T01:57:04.212Z,100.00
2022-08-10T02:02:10.077Z,100.00
2022-08-10T02:07:16.513Z,100.00
2022-08-10T02:12:24.488Z,100.00
2022-08-10T02:17:59.876Z,100.00
2022-08-10T02:23:02.840Z,100.00
2022-08-10T02:28:06.693Z,100.00
2022-08-10T02:33:09.925Z,100.00
2022-08-10T02:38:15.547Z,100.00
2022-08-10T02:45:18.527Z,100.00
2022-08-10T02:48:51.855Z,100.00
2022-08-10T02:54:02.650Z,100.00
2022-08-10T02:59:10.174Z,100.00
2022-08-10T03:04:57.112Z,100.00
2022-08-10T03:09:57.755Z,100.00
2022-08-10T03:15:00.785Z,100.00
2022-08-10T03:20:04.688Z,100.00
2022-08-10T03:25:26.278Z,100.00
2022-08-10T03:30:33.275Z,100.00
2022-08-10T03:35:35.838Z,100.00
2022-08-10T03:40:46.022Z,100.00
2022-08-10T03:45:58.629Z,100.00
2022-08-10T03:51:01.991Z,100.00
2022-08-10T03:56:29.362Z,100.00
2022-08-10T04:02:44.008Z,100.00
2022-08-10T04:06:51.397Z,100.00
2022-08-10T04:11:56.328Z,100.00
2022-08-10T04:16:57.966Z,100.00
2022-08-10T04:22:15.936Z,100.00
2022-08-10T04:27:17.789Z,100.00
2022-08-10T04:32:22.146Z,100.00
2022-08-10T04:37:24.659Z,100.00
2022-08-10T04:42:26.488Z,100.00
2022-08-10T04:47:57.417Z,100.00
2022-08-10T04:52:49.806Z,100.00
2022-08-10T04:57:51.460Z,100.00
2022-08-10T05:02:53.116Z,100.00
2022-08-10T05:07:56.907Z,100.00
2022-08-10T05:12:58.811Z,100.00
2022-08-10T05:18:08.698Z,100.00
2022-08-10T05:23:11.591Z,100.00
2022-08-10T05:28:13.189Z,100.00
2022-08-10T05:33:14.795Z,100.00
2022-08-10T05:38:17.883Z,100.00
2022-08-10T05:43:21.634Z,100.00
2022-08-10T05:48:41.702Z,100.00
2022-08-10T05:54:01.155Z,100.00
2022-08-10T05:59:05.128Z,100.00
2022-08-10T06:04:09.270Z,100.00
2022-08-10T06:09:12.014Z,100.00
2022-08-10T06:14:34.764Z,100.00
2022-08-10T06:19:39.617Z,100.00
2022-08-10T06:25:10.040Z,100.00
2022-08-10T06:30:20.595Z,100.00
2022-08-10T06:35:28.620Z,100.00
2022-08-10T06:40:35.948Z,100.00
2022-08-10T06:45:45.974Z,100.00
2022-08-10T06:51:15.395Z,100.00
2022-08-10T06:56:20.918Z,100.00
2022-08-10T07:01:43.575Z,100.00
2022-08-10T07:06:55.139Z,100.00
2022-08-10T07:11:58.351Z,100.00
2022-08-10T07:17:17.171Z,100.00
2022-08-10T07:23:27.399Z,100.00
2022-08-10T07:27:58.494Z,100.00
2022-08-10T07:33:05.300Z,100.00
2022-08-10T07:38:09.462Z,100.00
2022-08-10T07:43:14.147Z,100.00
2022-08-10T07:48:24.989Z,100.00
2022-08-10T07:53:32.364Z,100.00
2022-08-10T07:58:46.424Z,100.00
2022-08-10T08:04:05.648Z,100.00
2022-08-10T08:09:12.667Z,100.00
2022-08-10T08:14:15.567Z,100.00
2022-08-10T08:19:37.512Z,100.00
2022-08-10T08:24:42.324Z,100.00
2022-08-10T08:29:46.400Z,100.00
2022-08-10T08:34:51.467Z,100.00
2022-08-10T08:39:53.911Z,100.00
2022-08-10T08:45:13.514Z,100.00
2022-08-10T08:50:34.075Z,100.00
2022-08-10T08:56:03.301Z,100.00
2022-08-10T09:01:43.794Z,100.00
2022-08-10T09:06:45.413Z,100.00
2022-08-10T09:12:06.017Z,100.00
2022-08-10T09:17:32.316Z,96.79
2022-08-10T09:22:59.906Z,83.74
2022-08-10T09:28:07.952Z,85.94
2022-08-10T09:36:26.377Z,80.90
2022-08-10T09:40:08.481Z,77.16
2022-08-10T09:44:58.440Z,73.32
2022-08-10T09:50:09.112Z,74.96
2022-08-10T09:56:17.076Z,75.95
2022-08-10T10:02:00.380Z,71.47
2022-08-10T10:07:07.027Z,79.38
2022-08-10T10:12:35.736Z,79.55
2022-08-10T10:17:37.420Z,78.92
2022-08-10T10:23:20.618Z,82.28
2022-08-10T10:28:57.461Z,82.36
2022-08-10T10:34:14.621Z,85.56
2022-08-10T10:39:23.799Z,85.80
2022-08-10T10:45:04.501Z,85.72
2022-08-10T10:50:13.191Z,87.16
2022-08-10T10:55:30.293Z,83.74
2022-08-10T11:00:42.105Z,78.80
2022-08-10T11:06:09.928Z,74.11
2022-08-10T11:12:00.045Z,77.67
2022-08-10T11:16:39.148Z,72.36
2022-08-10T11:21:45.372Z,72.62
2022-08-10T11:26:57.390Z,73.17
2022-08-10T11:32:20.302Z,72.29
2022-08-10T11:38:29.714Z,73.46
2022-08-10T11:43:06.483Z,69.53
2022-08-10T11:48:54.868Z,65.52
2022-08-10T11:54:07.379Z,67.65
2022-08-10T11:59:28.242Z,68.19
2022-08-10T12:04:31.407Z,67.57
2022-08-10T12:10:10.644Z,66.05
2022-08-10T12:15:11.165Z,66.52
2022-08-10T12:20:29.065Z,61.41
2022-08-10T12:25:58.705Z,59.86
2022-08-10T12:31:02.709Z,56.34
2022-08-10T12:36:18.301Z,54.24
2022-08-10T12:41:44.541Z,51.27
2022-08-10T12:46:58.961Z,46.02
2022-08-10T12:52:34.944Z,36.51
2022-08-10T12:57:41.012Z,29.29
2022-08-10T13:02:48.555Z,28.01
2022-08-10T13:08:27.195Z,28.68
2022-08-10T13:13:37.243Z,36.78
2022-08-10T13:18:42.484Z,40.75
2022-08-10T13:24:04.285Z,35.79
2022-08-10T13:29:15.124Z,27.85
2022-08-10T13:34:43.028Z,26.45
2022-08-10T13:39:59.482Z,29.28
2022-08-10T13:45:14.583Z,32.87
2022-08-10T13:50:33.691Z,35.25
2022-08-10T13:55:54.122Z,35.53
2022-08-10T14:01:00.494Z,28.83
2022-08-10T14:06:05.366Z,30.12
2022-08-10T14:11:13.004Z,33.34
2022-08-10T14:16:17.303Z,37.22
2022-08-10T14:21:19.210Z,42.43
2022-08-10T14:26:26.294Z,43.98
2022-08-10T14:31:34.183Z,45.26
2022-08-10T14:36:56.153Z,38.57
2022-08-10T14:42:11.070Z,30.87
2022-08-10T14:47:53.065Z,33.75
2022-08-10T14:52:48.316Z,34.40
2022-08-10T14:58:19.795Z,40.49
2022-08-10T15:04:01.800Z,42.69
2022-08-10T15:08:42.025Z,45.68
2022-08-10T15:14:15.191Z,48.54
2022-08-10T15:20:00.636Z,47.56
2022-08-10T15:25:00.463Z,47.73
2022-08-10T15:30:03.913Z,46.56
2022-08-10T15:35:26.557Z,46.50
2022-08-10T15:40:37.371Z,47.25
2022-08-10T15:46:02.334Z,44.02
2022-08-10T15:51:10.516Z,43.68
2022-08-10T15:56:16.955Z,40.95
2022-08-10T16:02:12.703Z,43.55
2022-08-10T16:07:10.264Z,48.13
2022-08-10T16:12:29.954Z,51.84
2022-08-10T16:17:54.676Z,53.11
2022-08-10T16:23:03.419Z,52.14
2022-08-10T16:28:08.529Z,51.39
2022-08-10T16:33:13.477Z,50.56
2022-08-10T16:38:17.619Z,48.86
2022-08-10T16:43:23.786Z,51.25
2022-08-10T16:48:50.222Z,52.61
2022-08-10T16:53:52.866Z,55.42
2022-08-10T16:58:57.388Z,57.97
2022-08-10T17:04:09.605Z,61.88
2022-08-10T17:09:19.160Z,64.64
2022-08-10T17:14:26.462Z,72.31
2022-08-10T17:19:35.008Z,87.41
2022-08-10T17:24:43.586Z,89.35
2022-08-10T17:29:58.027Z,85.89
2022-08-10T17:35:09.861Z,86.47
2022-08-10T17:40:16.963Z,92.72
2022-08-10T17:45:46.230Z,100.00
2022-08-10T17:50:52.431Z,100.00
2022-08-10T17:55:56.485Z,99.51
2022-08-10T18:01:38.746Z,100.00
2022-08-10T18:06:24.346Z,100.00
2022-08-10T18:11:29.087Z,100.00
2022-08-10T18:16:33.932Z,100.00
2022-08-10T18:21:43.527Z,100.00
2022-08-10T18:26:52.452Z,100.00
2022-08-10T18:32:02.991Z,100.00
2022-08-10T18:37:19.827Z,100.00
2022-08-10T18:42:31.287Z,100.00
2022-08-10T18:47:59.543Z,100.00
2022-08-10T18:53:09.167Z,100.00
2022-08-10T18:58:40.149Z,100.00
2022-08-10T19:03:53.474Z,100.00
2022-08-10T19:09:41.597Z,100.00
2022-08-10T19:14:57.225Z,100.00
2022-08-10T19:20:17.353Z,100.00
2022-08-10T19:26:40.810Z,100.00
2022-08-10T19:30:52.010Z,100.00
2022-08-10T19:36:16.776Z,100.00
2022-08-10T19:41:44.745Z,100.00
2022-08-10T19:46:51.378Z,100.00
2022-08-10T19:52:22.550Z,100.00
2022-08-10T19:57:37.406Z,100.00
2022-08-10T20:03:04.252Z,100.00
2022-08-10T20:08:20.809Z,100.00
2022-08-10T20:13:37.013Z,100.00
2022-08-10T20:18:47.350Z,100.00
2022-08-10T20:24:05.613Z,100.00
2022-08-10T20:29:16.522Z,100.00
2022-08-10T20:34:44.821Z,100.00
2022-08-10T20:39:54.075Z,100.00
2022-08-10T20:45:18.271Z,100.00
2022-08-10T20:50:48.981Z,100.00
2022-08-10T20:56:29.358Z,100.00
2022-08-10T21:02:06.749Z,100.00
2022-08-10T21:07:28.349Z,100.00
2022-08-10T21:13:01.225Z,100.00
2022-08-10T21:18:21.590Z,100.00
2022-08-10T21:23:30.980Z,100.00
2022-08-10T21:28:51.015Z,100.00
2022-08-10T21:34:13.280Z,100.00
2022-08-10T21:39:43.011Z,100.00
2022-08-10T21:45:54.887Z,100.00
2022-08-10T21:51:24.375Z,100.00
2022-08-10T21:57:04.200Z,100.00
2022-08-10T22:02:31.648Z,100.00
2022-08-10T22:07:54.970Z,100.00
2022-08-10T22:13:21.389Z,100.00
2022-08-10T22:18:59.463Z,100.00
2022-08-10T22:24:44.771Z,100.00
2022-08-10T22:30:10.586Z,100.00
2022-08-10T22:35:34.006Z,100.00
2022-08-10T22:40:54.122Z,100.00
2022-08-10T22:46:18.408Z,100.00
2022-08-10T22:51:23.653Z,100.00
2022-08-10T22:56:44.435Z,100.00
2022-08-10T23:02:08.386Z,100.00
2022-08-10T23:07:16.899Z,100.00
2022-08-10T23:12:25.629Z,100.00
2022-08-10T23:18:01.477Z,100.00
2022-08-10T23:23:09.967Z,100.00
2022-08-10T23:28:13.532Z,100.00
2022-08-10T23:33:38.097Z,100.00
2022-08-10T23:38:42.138Z,100.00
2022-08-10T23:44:03.483Z,100.00
2022-08-10T23:49:07.742Z,100.00
2022-08-10T23:54:15.684Z,100.00
2022-08-10T23:59:21.230Z,100.00
